| time (UTC) | temp C | wind direction | speed KPH | gust KPH | rain 1hr cm | rain 24hr cm | rain mn cm | humidity % | barometer mb |
| 20260510093043 | 10 | 0 | 0.0 | 0.0 | 0.03 | 0.69 | 0.03 | 95 | 1011.6 |
| 20260510091543 | 10 | 0 | 0.0 | 0.0 | 0.03 | 0.69 | 0.03 | 95 | 1011.5 |
| 20260510090044 | 10 | 0 | 0.0 | 0.0 | 0.03 | 0.69 | 0.03 | 95 | 1011.4 |
| 20260510084543 | 10 | 0 | 0.0 | 1.6 | 0.03 | 0.69 | 0.03 | 95 | 1011.3 |
| 20260510083037 | 10 | 0 | 0.0 | 1.6 | 0.00 | 0.66 | 0.00 | 95 | 1011.3 |
| 20260510081557 | 10 | 0 | 0.0 | 3.2 | 0.00 | 0.66 | 0.00 | 95 | 1011.2 |
| 20260510080043 | 10 | 0 | 0.0 | 0.0 | 0.00 | 0.66 | 0.00 | 95 | 1011.2 |
| 20260510074546 | 10 | 0 | 0.0 | 0.0 | 0.00 | 0.66 | 0.00 | 95 | 1011.4 |
| 20260510073042 | 10 | 314 | 1.6 | 3.2 | 0.00 | 0.66 | 0.00 | 95 | 1011.6 |
| 20260510071539 | 10 | 162 | 0.0 | 4.8 | 0.00 | 0.66 | 0.00 | 95 | 1011.8 |
| 20260510070038 | 10 | 283 | 3.2 | 9.7 | 0.00 | 0.66 | 0.00 | 95 | 1011.8 |
| 20260510064535 | 10 | 322 | 6.4 | 12.9 | 0.00 | 0.66 | 0.00 | 95 | 1011.8 |
| 20260510063037 | 10 | 0 | 0.0 | 1.6 | 0.00 | 0.66 | 0.00 | 95 | 1011.2 |
| 20260510061538 | 10 | 0 | 0.0 | 0.0 | 0.00 | 0.66 | 0.00 | 94 | 1011.3 |
| 20260510060048 | 10 | 0 | 0.0 | 0.0 | 0.00 | 0.66 | 0.00 | 94 | 1011.4 |
| 20260510054536 | 10 | 0 | 0.0 | 4.8 | 0.00 | 0.66 | 0.00 | 95 | 1011.6 |
| 20260510053035 | 11 | 0 | 0.0 | 4.8 | 0.00 | 0.66 | 0.00 | 95 | 1011.7 |
| 20260510051604 | 11 | 0 | 0.0 | 0.0 | 0.00 | 0.66 | 0.00 | 95 | 1011.5 |
| 20260510050040 | 11 | 0 | 0.0 | 0.0 | 0.00 | 0.66 | 0.00 | 95 | 1011.2 |
| 20260510044538 | 10 | 0 | 0.0 | 0.0 | 0.00 | 0.66 | 0.00 | 95 | 1011.3 |
| 20260510043047 | 10 | 0 | 0.0 | 0.0 | 0.00 | 0.66 | 0.00 | 95 | 1011.4 |
| 20260510041550 | 10 | 0 | 0.0 | 0.0 | 0.00 | 0.66 | 0.00 | 94 | 1011.3 |
| 20260510040044 | 10 | 0 | 0.0 | 0.0 | 0.00 | 0.66 | 0.00 | 94 | 1011.3 |
| 20260510034544 | 11 | 0 | 0.0 | 0.0 | 0.00 | 0.66 | 0.66 | 94 | 1011.2 |
| 20260510033039 | 11 | 0 | 0.0 | 0.0 | 0.00 | 0.66 | 0.66 | 94 | 1011.2 |
| 20260510031604 | 11 | 0 | 0.0 | 0.0 | 0.00 | 0.66 | 0.66 | 94 | 1011.0 |
| 20260510030045 | 11 | 0 | 0.0 | 0.0 | 0.00 | 0.66 | 0.66 | 94 | 1011.1 |
| 20260510024541 | 10 | 0 | 0.0 | 0.0 | 0.00 | 0.66 | 0.66 | 94 | 1011.0 |
| 20260510023045 | 10 | 0 | 0.0 | 0.0 | 0.00 | 0.66 | 0.66 | 94 | 1010.9 |
| 20260510021541 | 10 | 0 | 0.0 | 0.0 | 0.00 | 0.66 | 0.66 | 94 | 1010.9 |
| 20260510020043 | 10 | 0 | 0.0 | 0.0 | 0.00 | 0.66 | 0.66 | 94 | 1010.8 |
| 20260510014542 | 10 | 0 | 0.0 | 0.0 | 0.00 | 0.66 | 0.66 | 93 | 1010.7 |
| 20260510013039 | 10 | 0 | 0.0 | 0.0 | 0.00 | 0.66 | 0.66 | 93 | 1010.8 |
| 20260510011545 | 10 | 0 | 0.0 | 0.0 | 0.00 | 0.66 | 0.66 | 93 | 1010.6 |
| 20260510010055 | 10 | 0 | 0.0 | 0.0 | 0.00 | 0.66 | 0.66 | 92 | 1010.4 |
| 20260510004542 | 10 | 0 | 0.0 | 1.6 | 0.00 | 0.66 | 0.66 | 92 | 1010.3 |
| 20260510003037 | 11 | 0 | 0.0 | 1.6 | 0.00 | 0.66 | 0.66 | 91 | 1010.2 |
| 20260510001545 | 11 | 0 | 0.0 | 1.6 | 0.00 | 0.66 | 0.66 | 89 | 1010.0 |
| 20260510000048 | 12 | 27 | 0.0 | 1.6 | 0.00 | 0.66 | 0.66 | 87 | 1009.9 |
| 20260509234543 | 13 | 27 | 0.0 | 1.6 | 0.00 | 0.66 | 0.66 | 83 | 1009.7 |
| 20260509233040 | 15 | 0 | 0.0 | 3.2 | 0.00 | 0.66 | 0.66 | 79 | 1009.6 |
| 20260509231552 | 16 | 0 | 0.0 | 1.6 | 0.00 | 0.66 | 0.66 | 74 | 1009.5 |
| 20260509230045 | 16 | 0 | 0.0 | 3.2 | 0.00 | 0.66 | 0.66 | 76 | 1009.7 |
| 20260509224542 | 16 | 0 | 0.0 | 3.2 | 0.00 | 0.66 | 0.66 | 78 | 1009.6 |
| 20260509223044 | 15 | 198 | 1.6 | 4.8 | 0.00 | 0.66 | 0.66 | 79 | 1009.6 |
| 20260509221539 | 15 | 254 | 0.0 | 3.2 | 0.00 | 0.66 | 0.66 | 83 | 1009.6 |
| 20260509220046 | 14 | 0 | 0.0 | 4.8 | 0.00 | 0.66 | 0.66 | 82 | 1009.7 |
| 20260509214541 | 14 | 256 | 0.0 | 3.2 | 0.00 | 0.66 | 0.66 | 85 | 1010.0 |
| 20260509213052 | 14 | 0 | 0.0 | 3.2 | 0.00 | 0.66 | 0.66 | 83 | 1009.9 |
| 20260509211604 | 15 | 207 | 1.6 | 6.4 | 0.00 | 0.66 | 0.66 | 84 | 1010.0 |
| 20260509210050 | 14 | 261 | 1.6 | 4.8 | 0.00 | 0.66 | 0.66 | 86 | 1010.1 |
| 20260509204557 | 13 | 0 | 0.0 | 3.2 | 0.00 | 0.66 | 0.66 | 88 | 1010.1 |
| 20260509203049 | 13 | 0 | 0.0 | 1.6 | 0.00 | 0.66 | 0.66 | 89 | 1010.3 |
| 20260509201540 | 12 | 150 | 0.0 | 1.6 | 0.00 | 0.66 | 0.66 | 89 | 1010.5 |
| 20260509200044 | 12 | 0 | 0.0 | 3.2 | 0.00 | 0.66 | 0.66 | 89 | 1010.6 |
| 20260509194545 | 12 | 124 | 0.0 | 1.6 | 0.05 | 0.66 | 0.66 | 90 | 1010.4 |
| 20260509193044 | 12 | 0 | 0.0 | 1.6 | 0.10 | 0.66 | 0.66 | 91 | 1010.7 |
| 20260509191543 | 11 | 0 | 0.0 | 1.6 | 0.13 | 0.66 | 0.66 | 91 | 1010.9 |
| 20260509190046 | 11 | 0 | 0.0 | 0.0 | 0.15 | 0.66 | 0.66 | 91 | 1011.4 |
| 20260509184536 | 11 | 0 | 0.0 | 0.0 | 0.15 | 0.61 | 0.61 | 91 | 1011.6 |
| 20260509183044 | 11 | 0 | 0.0 | 0.0 | 0.20 | 0.56 | 0.56 | 90 | 1011.7 |
| 20260509181550 | 11 | 0 | 0.0 | 1.6 | 0.23 | 0.53 | 0.53 | 91 | 1011.6 |
| 20260509180044 | 11 | 0 | 0.0 | 1.6 | 0.30 | 0.51 | 0.51 | 90 | 1011.5 |
| 20260509174542 | 11 | 0 | 0.0 | 4.8 | 0.36 | 0.46 | 0.46 | 90 | 1011.5 |
| 20260509173036 | 11 | 300 | 1.6 | 4.8 | 0.30 | 0.36 | 0.36 | 89 | 1011.7 |
| 20260509171535 | 11 | 325 | 0.0 | 3.2 | 0.25 | 0.28 | 0.28 | 88 | 1011.6 |
| 20260509170036 | 12 | 309 | 1.6 | 4.8 | 0.18 | 0.20 | 0.20 | 86 | 1011.8 |
| 20260509164543 | 12 | 329 | 3.2 | 6.4 | 0.08 | 0.10 | 0.10 | 84 | 1011.8 |
| 20260509163051 | 12 | 286 | 3.2 | 11.3 | 0.03 | 0.05 | 0.05 | 81 | 1011.9 |
| 20260509161540 | 13 | 325 | 3.2 | 12.9 | 0.00 | 0.03 | 0.03 | 81 | 1011.9 |
| 20260509160042 | 13 | 0 | 1.6 | 6.4 | 0.00 | 0.03 | 0.03 | 81 | 1012.0 |
| 20260509154543 | 13 | 338 | 0.0 | 3.2 | 0.00 | 0.03 | 0.03 | 81 | 1012.1 |
| 20260509153044 | 13 | 0 | 0.0 | 3.2 | 0.00 | 0.03 | 0.03 | 83 | 1012.1 |
| 20260509151538 | 12 | 0 | 0.0 | 3.2 | 0.00 | 0.03 | 0.03 | 84 | 1012.2 |
| 20260509150045 | 12 | 0 | 0.0 | 3.2 | 0.00 | 0.03 | 0.03 | 83 | 1011.8 |
| 20260509144544 | 12 | 91 | 0.0 | 3.2 | 0.00 | 0.03 | 0.03 | 83 | 1011.8 |
| 20260509143047 | 12 | 0 | 0.0 | 1.6 | 0.03 | 0.03 | 0.03 | 82 | 1011.8 |
| 20260509141545 | 12 | 0 | 0.0 | 1.6 | 0.03 | 0.03 | 0.03 | 83 | 1011.9 |
| 20260509140047 | 12 | 0 | 1.6 | 4.8 | 0.03 | 0.03 | 0.03 | 83 | 1011.9 |
| 20260509134548 | 12 | 0 | 0.0 | 4.8 | 0.03 | 0.03 | 0.03 | 84 | 1012.0 |
| 20260509133039 | 11 | 119 | 0.0 | 1.6 | 0.00 | 0.00 | 0.00 | 83 | 1011.8 |
| 20260509131536 | 11 | 78 | 3.2 | 6.4 | 0.00 | 0.00 | 0.00 | 82 | 1011.3 |
| 20260509130044 | 11 | 92 | 1.6 | 4.8 | 0.00 | 0.00 | 0.00 | 82 | 1011.5 |
| 20260509124543 | 11 | 75 | 1.6 | 4.8 | 0.00 | 0.00 | 0.00 | 81 | 1011.7 |
| 20260509123037 | 11 | 92 | 1.6 | 4.8 | 0.00 | 0.00 | 0.00 | 78 | 1011.8 |
| 20260509121539 | 11 | 96 | 1.6 | 6.4 | 0.00 | 0.00 | 0.00 | 77 | 1011.8 |
| 20260509120037 | 11 | 85 | 3.2 | 6.4 | 0.00 | 0.00 | 0.00 | 76 | 1011.9 |
| 20260509114538 | 11 | 0 | 1.6 | 4.8 | 0.00 | 0.00 | 0.00 | 77 | 1011.8 |
| 20260509113044 | 11 | 49 | 1.6 | 6.4 | 0.00 | 0.00 | 0.00 | 77 | 1011.5 |
| 20260509111539 | 10 | 82 | 1.6 | 6.4 | 0.00 | 0.00 | 0.00 | 78 | 1011.4 |
| 20260509110037 | 10 | 0 | 0.0 | 4.8 | 0.00 | 0.00 | 0.00 | 79 | 1011.7 |
| 20260509104537 | 10 | 0 | 0.0 | 8.0 | 0.00 | 0.00 | 0.00 | 80 | 1011.5 |
| 20260509103044 | 10 | 87 | 0.0 | 1.6 | 0.00 | 0.00 | 0.00 | 82 | 1011.2 |
| 20260509101544 | 9 | 0 | 0.0 | 3.2 | 0.00 | 0.00 | 0.00 | 84 | 1011.1 |
| 20260509100040 | 9 | 0 | 0.0 | 1.6 | 0.00 | 0.00 | 0.00 | 85 | 1011.3 |
| 20260509094537 | 8 | 0 | 0.0 | 0.0 | 0.00 | 0.00 | 0.00 | 86 | 1011.4 |